sensor_id;sensor_type;location;lat;lon;timestamp;pressure;altitude;pressure_sealevel;temperature;humidity
63556;BME280;49700;48.072;7.800;2023-04-01T00:00:16;98461.34;;;10.40;nan
63556;BME280;49700;48.072;7.800;2023-04-01T00:02:42;98467.09;;;10.34;nan
63556;BME280;49700;48.072;7.800;2023-04-01T00:05:08;98451.81;;;10.28;nan
63556;BME280;49700;48.072;7.800;2023-04-01T00:07:36;98458.50;;;10.21;nan
63556;BME280;49700;48.072;7.800;2023-04-01T00:10:02;98454.59;;;10.15;nan
63556;BME280;49700;48.072;7.800;2023-04-01T00:12:28;98452.44;;;10.09;nan
63556;BME280;49700;48.072;7.800;2023-04-01T00:14:53;98458.06;;;10.05;nan
63556;BME280;49700;48.072;7.800;2023-04-01T00:17:18;98470.47;;;10.03;nan
63556;BME280;49700;48.072;7.800;2023-04-01T00:19:44;98461.88;;;10.01;nan
63556;BME280;49700;48.072;7.800;2023-04-01T00:22:09;98444.72;;;9.96;nan
63556;BME280;49700;48.072;7.800;2023-04-01T00:24:37;98438.88;;;9.93;nan
63556;BME280;49700;48.072;7.800;2023-04-01T00:27:03;98441.63;;;9.91;nan
63556;BME280;49700;48.072;7.800;2023-04-01T00:29:28;98452.38;;;9.88;nan
63556;BME280;49700;48.072;7.800;2023-04-01T00:31:55;98447.50;;;9.84;nan
63556;BME280;49700;48.072;7.800;2023-04-01T00:34:20;98446.75;;;9.82;nan
63556;BME280;49700;48.072;7.800;2023-04-01T00:36:46;98450.47;;;9.79;nan
63556;BME280;49700;48.072;7.800;2023-04-01T00:39:11;98449.75;;;9.77;nan
63556;BME280;49700;48.072;7.800;2023-04-01T00:41:37;98449.25;;;9.72;nan
63556;BME280;49700;48.072;7.800;2023-04-01T00:44:33;98448.34;;;9.73;nan
63556;BME280;49700;48.072;7.800;2023-04-01T00:47:00;98441.41;;;9.72;nan
63556;BME280;49700;48.072;7.800;2023-04-01T00:49:31;98444.03;;;9.72;nan
63556;BME280;49700;48.072;7.800;2023-04-01T00:51:59;98449.25;;;9.72;nan
63556;BME280;49700;48.072;7.800;2023-04-01T00:54:28;98451.06;;;9.71;nan
63556;BME280;49700;48.072;7.800;2023-04-01T00:57:15;98459.75;;;9.72;nan
63556;BME280;49700;48.072;7.800;2023-04-01T00:59:46;98451.88;;;9.72;nan
63556;BME280;49700;48.072;7.800;2023-04-01T01:02:14;98455.38;;;9.72;nan
63556;BME280;49700;48.072;7.800;2023-04-01T01:04:41;98450.81;;;9.74;nan
63556;BME280;49700;48.072;7.800;2023-04-01T01:07:19;98442.13;;;9.74;nan
63556;BME280;49700;48.072;7.800;2023-04-01T01:09:51;98440.47;;;9.73;nan
63556;BME280;49700;48.072;7.800;2023-04-01T01:31:36;98409.22;;;9.81;nan
63556;BME280;49700;48.072;7.800;2023-04-01T01:34:17;98400.38;;;9.82;nan
63556;BME280;49700;48.072;7.800;2023-04-01T01:36:48;98407.19;;;9.85;nan
63556;BME280;49700;48.072;7.800;2023-04-01T01:39:18;98406.09;;;9.87;nan
63556;BME280;49700;48.072;7.800;2023-04-01T01:41:46;98411.09;;;9.90;nan
63556;BME280;49700;48.072;7.800;2023-04-01T01:44:15;98403.84;;;9.94;nan
63556;BME280;49700;48.072;7.800;2023-04-01T01:46:42;98412.41;;;9.96;nan
63556;BME280;49700;48.072;7.800;2023-04-01T01:49:11;98398.19;;;9.98;nan
63556;BME280;49700;48.072;7.800;2023-04-01T01:51:38;98402.38;;;10.01;nan
63556;BME280;49700;48.072;7.800;2023-04-01T01:54:05;98398.09;;;10.00;nan
63556;BME280;49700;48.072;7.800;2023-04-01T01:56:32;98395.31;;;10.02;nan
63556;BME280;49700;48.072;7.800;2023-04-01T01:59:03;98405.81;;;10.02;nan
63556;BME280;49700;48.072;7.800;2023-04-01T02:01:34;98397.13;;;10.01;nan
63556;BME280;49700;48.072;7.800;2023-04-01T02:04:09;98406.69;;;10.02;nan
63556;BME280;49700;48.072;7.800;2023-04-01T02:06:39;98407.00;;;10.09;nan
63556;BME280;49700;48.072;7.800;2023-04-01T02:09:08;98415.44;;;10.12;nan
63556;BME280;49700;48.072;7.800;2023-04-01T02:11:41;98412.47;;;10.17;nan
63556;BME280;49700;48.072;7.800;2023-04-01T02:14:15;98416.63;;;10.19;nan
63556;BME280;49700;48.072;7.800;2023-04-01T02:16:57;98415.44;;;10.24;nan
63556;BME280;49700;48.072;7.800;2023-04-01T02:19:31;98411.84;;;10.25;nan
63556;BME280;49700;48.072;7.800;2023-04-01T02:22:01;98412.66;;;10.25;nan
63556;BME280;49700;48.072;7.800;2023-04-01T02:24:29;98409.81;;;10.28;nan
63556;BME280;49700;48.072;7.800;2023-04-01T02:26:56;98410.66;;;10.29;nan
63556;BME280;49700;48.072;7.800;2023-04-01T02:29:23;98424.38;;;10.32;nan
63556;BME280;49700;48.072;7.800;2023-04-01T02:31:50;98415.69;;;10.32;nan
63556;BME280;49700;48.072;7.800;2023-04-01T02:34:16;98406.13;;;10.31;nan
63556;BME280;49700;48.072;7.800;2023-04-01T02:36:42;98405.53;;;10.27;nan
63556;BME280;49700;48.072;7.800;2023-04-01T02:39:08;98410.78;;;10.27;nan
63556;BME280;49700;48.072;7.800;2023-04-01T02:41:41;98415.56;;;10.22;nan
63556;BME280;49700;48.072;7.800;2023-04-01T02:44:07;98417.34;;;10.22;nan
63556;BME280;49700;48.072;7.800;2023-04-01T02:46:33;98417.47;;;10.20;nan
63556;BME280;49700;48.072;7.800;2023-04-01T02:48:58;98403.41;;;10.21;nan
63556;BME280;49700;48.072;7.800;2023-04-01T02:51:25;98421.06;;;10.19;nan
63556;BME280;49700;48.072;7.800;2023-04-01T02:53:51;98418.44;;;10.19;nan
63556;BME280;49700;48.072;7.800;2023-04-01T02:56:16;98420.91;;;10.20;nan
63556;BME280;49700;48.072;7.800;2023-04-01T02:58:42;98428.91;;;10.19;nan
63556;BME280;49700;48.072;7.800;2023-04-01T03:01:08;98429.91;;;10.18;nan
63556;BME280;49700;48.072;7.800;2023-04-01T03:03:33;98423.09;;;10.15;nan
63556;BME280;49700;48.072;7.800;2023-04-01T03:06:05;98431.59;;;10.08;nan
63556;BME280;49700;48.072;7.800;2023-04-01T03:08:30;98427.53;;;10.04;nan
63556;BME280;49700;48.072;7.800;2023-04-01T03:10:56;98423.59;;;9.98;nan
63556;BME280;49700;48.072;7.800;2023-04-01T03:13:21;98433.28;;;9.97;nan
63556;BME280;49700;48.072;7.800;2023-04-01T03:15:47;98431.00;;;9.93;nan
63556;BME280;49700;48.072;7.800;2023-04-01T03:18:13;98431.16;;;9.91;nan
63556;BME280;49700;48.072;7.800;2023-04-01T03:20:39;98428.63;;;9.90;nan
63556;BME280;49700;48.072;7.800;2023-04-01T03:23:04;98436.84;;;9.85;nan
63556;BME280;49700;48.072;7.800;2023-04-01T03:25:30;98421.13;;;9.85;nan
63556;BME280;49700;48.072;7.800;2023-04-01T03:27:56;98425.53;;;9.85;nan
63556;BME280;49700;48.072;7.800;2023-04-01T03:30:21;98414.22;;;9.84;nan
63556;BME280;49700;48.072;7.800;2023-04-01T03:32:49;98419.72;;;9.81;nan
63556;BME280;49700;48.072;7.800;2023-04-01T03:35:15;98436.53;;;9.79;nan
63556;BME280;49700;48.072;7.800;2023-04-01T03:37:40;98430.44;;;9.78;nan
63556;BME280;49700;48.072;7.800;2023-04-01T03:40:06;98434.00;;;9.77;nan
63556;BME280;49700;48.072;7.800;2023-04-01T03:42:32;98429.00;;;9.74;nan
63556;BME280;49700;48.072;7.800;2023-04-01T03:44:57;98430.69;;;9.75;nan
63556;BME280;49700;48.072;7.800;2023-04-01T03:47:23;98417.69;;;9.73;nan
63556;BME280;49700;48.072;7.800;2023-04-01T03:49:48;98422.94;;;9.73;nan
63556;BME280;49700;48.072;7.800;2023-04-01T03:52:13;98421.16;;;9.74;nan
63556;BME280;49700;48.072;7.800;2023-04-01T03:54:39;98419.34;;;9.74;nan
63556;BME280;49700;48.072;7.800;2023-04-01T03:57:04;98419.50;;;9.73;nan
63556;BME280;49700;48.072;7.800;2023-04-01T03:59:30;98412.44;;;9.73;nan
63556;BME280;49700;48.072;7.800;2023-04-01T04:01:56;98416.88;;;9.73;nan
63556;BME280;49700;48.072;7.800;2023-04-01T04:04:22;98408.28;;;9.71;nan
63556;BME280;49700;48.072;7.800;2023-04-01T04:06:47;98412.56;;;9.72;nan
63556;BME280;49700;48.072;7.800;2023-04-01T04:09:14;98421.28;;;9.72;nan
63556;BME280;49700;48.072;7.800;2023-04-01T04:11:39;98422.22;;;9.71;nan
63556;BME280;49700;48.072;7.800;2023-04-01T04:14:05;98422.34;;;9.70;nan
63556;BME280;49700;48.072;7.800;2023-04-01T04:16:30;98424.00;;;9.71;nan
63556;BME280;49700;48.072;7.800;2023-04-01T04:18:59;98422.22;;;9.71;nan
63556;BME280;49700;48.072;7.800;2023-04-01T04:21:24;98412.56;;;9.72;nan
63556;BME280;49700;48.072;7.800;2023-04-01T04:23:50;98411.72;;;9.71;nan
63556;BME280;49700;48.072;7.800;2023-04-01T04:26:17;98411.72;;;9.71;nan
63556;BME280;49700;48.072;7.800;2023-04-01T04:28:49;98408.28;;;9.71;nan
63556;BME280;49700;48.072;7.800;2023-04-01T04:31:24;98410.78;;;9.72;nan
63556;BME280;49700;48.072;7.800;2023-04-01T04:33:51;98402.94;;;9.72;nan
63556;BME280;49700;48.072;7.800;2023-04-01T04:36:18;98405.41;;;9.74;nan
63556;BME280;49700;48.072;7.800;2023-04-01T04:38:44;98417.59;;;9.75;nan
63556;BME280;49700;48.072;7.800;2023-04-01T04:41:10;98398.97;;;9.78;nan
63556;BME280;49700;48.072;7.800;2023-04-01T04:43:37;98399.81;;;9.79;nan
63556;BME280;49700;48.072;7.800;2023-04-01T04:46:11;98400.63;;;9.79;nan
63556;BME280;49700;48.072;7.800;2023-04-01T04:48:37;98396.22;;;9.80;nan
63556;BME280;49700;48.072;7.800;2023-04-01T04:51:03;98388.25;;;9.81;nan
63556;BME280;49700;48.072;7.800;2023-04-01T04:53:30;98385.63;;;9.81;nan
63556;BME280;49700;48.072;7.800;2023-04-01T04:55:55;98396.22;;;9.80;nan
63556;BME280;49700;48.072;7.800;2023-04-01T04:58:32;98395.28;;;9.81;nan
63556;BME280;49700;48.072;7.800;2023-04-01T05:00:58;98385.03;;;9.78;nan
63556;BME280;49700;48.072;7.800;2023-04-01T05:03:28;98388.34;;;9.80;nan
63556;BME280;49700;48.072;7.800;2023-04-01T05:05:53;98387.41;;;9.81;nan
63556;BME280;49700;48.072;7.800;2023-04-01T05:08:19;98380.38;;;9.81;nan
63556;BME280;49700;48.072;7.800;2023-04-01T05:10:46;98373.34;;;9.82;nan
63556;BME280;49700;48.072;7.800;2023-04-01T05:13:11;98370.81;;;9.80;nan
63556;BME280;49700;48.072;7.800;2023-04-01T05:15:37;98369.06;;;9.81;nan
63556;BME280;49700;48.072;7.800;2023-04-01T05:18:03;98363.66;;;9.82;nan
63556;BME280;49700;48.072;7.800;2023-04-01T05:20:28;98361.06;;;9.82;nan
63556;BME280;49700;48.072;7.800;2023-04-01T05:22:58;98362.84;;;9.82;nan
63556;BME280;49700;48.072;7.800;2023-04-01T05:25:24;98362.72;;;9.83;nan
63556;BME280;49700;48.072;7.800;2023-04-01T05:27:50;98352.94;;;9.85;nan
63556;BME280;49700;48.072;7.800;2023-04-01T05:30:16;98363.19;;;9.88;nan
63556;BME280;49700;48.072;7.800;2023-04-01T05:32:56;98363.88;;;9.90;nan
63556;BME280;49700;48.072;7.800;2023-04-01T05:35:23;98365.44;;;9.93;nan
63556;BME280;49700;48.072;7.800;2023-04-01T05:37:48;98357.44;;;9.94;nan
63556;BME280;49700;48.072;7.800;2023-04-01T05:40:14;98369.34;;;9.98;nan
63556;BME280;49700;48.072;7.800;2023-04-01T05:42:39;98350.97;;;9.98;nan
63556;BME280;49700;48.072;7.800;2023-04-01T05:45:05;98356.94;;;10.01;nan
63556;BME280;49700;48.072;7.800;2023-04-01T05:47:50;98363.84;;;10.02;nan
63556;BME280;49700;48.072;7.800;2023-04-01T05:50:17;98363.84;;;10.02;nan
63556;BME280;49700;48.072;7.800;2023-04-01T05:52:42;98349.53;;;10.06;nan
63556;BME280;49700;48.072;7.800;2023-04-01T05:55:09;98355.50;;;10.08;nan
63556;BME280;49700;48.072;7.800;2023-04-01T05:57:34;98345.56;;;10.11;nan
63556;BME280;49700;48.072;7.800;2023-04-01T06:00:00;98351.53;;;10.13;nan
63556;BME280;49700;48.072;7.800;2023-04-01T06:02:25;98348.09;;;10.13;nan
63556;BME280;49700;48.072;7.800;2023-04-01T06:05:00;98354.03;;;10.15;nan
63556;BME280;49700;48.072;7.800;2023-04-01T06:07:28;98353.91;;;10.16;nan
63556;BME280;49700;48.072;7.800;2023-04-01T06:09:54;98332.81;;;10.18;nan
63556;BME280;49700;48.072;7.800;2023-04-01T06:15:18;98355.06;;;10.24;nan
63556;BME280;49700;48.072;7.800;2023-04-01T06:17:57;98347.88;;;10.26;nan
63556;BME280;49700;48.072;7.800;2023-04-01T06:29:12;98343.31;;;10.39;nan
63556;BME280;49700;48.072;7.800;2023-04-01T06:32:04;98341.53;;;10.39;nan
63556;BME280;49700;48.072;7.800;2023-04-01T06:34:56;98339.50;;;10.43;nan
63556;BME280;49700;48.072;7.800;2023-04-01T06:37:52;98349.84;;;10.45;nan
63556;BME280;49700;48.072;7.800;2023-04-01T06:51:38;98344.03;;;10.62;nan
63556;BME280;49700;48.072;7.800;2023-04-01T06:57:20;98353.91;;;10.70;nan
63556;BME280;49700;48.072;7.800;2023-04-01T06:59:47;98343.13;;;10.73;nan
63556;BME280;49700;48.072;7.800;2023-04-01T07:02:22;98338.44;;;10.76;nan
63556;BME280;49700;48.072;7.800;2023-04-01T07:04:53;98338.34;;;10.78;nan
63556;BME280;49700;48.072;7.800;2023-04-01T07:07:31;98356.56;;;10.79;nan
63556;BME280;49700;48.072;7.800;2023-04-01T07:10:05;98345.81;;;10.82;nan
63556;BME280;49700;48.072;7.800;2023-04-01T07:12:56;98352.59;;;10.85;nan
63556;BME280;49700;48.072;7.800;2023-04-01T07:15:54;98354.13;;;10.88;nan
63556;BME280;49700;48.072;7.800;2023-04-01T07:18:28;98352.78;;;10.93;nan
63556;BME280;49700;48.072;7.800;2023-04-01T07:20:58;98350.47;;;11.00;nan
63556;BME280;49700;48.072;7.800;2023-04-01T07:23:29;98356.16;;;11.05;nan
63556;BME280;49700;48.072;7.800;2023-04-01T07:26:21;98352.44;;;11.07;nan
63556;BME280;49700;48.072;7.800;2023-04-01T07:29:11;98348.00;;;11.08;nan
63556;BME280;49700;48.072;7.800;2023-04-01T07:32:17;98355.63;;;11.11;nan
63556;BME280;49700;48.072;7.800;2023-04-01T07:35:15;98350.38;;;11.11;nan
63556;BME280;49700;48.072;7.800;2023-04-01T07:37:57;98348.44;;;11.13;nan
63556;BME280;49700;48.072;7.800;2023-04-01T07:40:54;98346.91;;;11.11;nan
63556;BME280;49700;48.072;7.800;2023-04-01T07:49:29;98376.09;;;11.07;nan
63556;BME280;49700;48.072;7.800;2023-04-01T07:52:18;98380.50;;;11.07;nan
63556;BME280;49700;48.072;7.800;2023-04-01T08:00:27;98380.25;;;11.10;nan
63556;BME280;49700;48.072;7.800;2023-04-01T08:05:31;98387.59;;;11.16;nan
63556;BME280;49700;48.072;7.800;2023-04-01T08:08:24;98390.09;;;11.18;nan
63556;BME280;49700;48.072;7.800;2023-04-01T08:14:11;98392.34;;;11.22;nan
63556;BME280;49700;48.072;7.800;2023-04-01T08:17:10;98393.03;;;11.24;nan
63556;BME280;49700;48.072;7.800;2023-04-01T08:19:59;98392.06;;;11.25;nan
63556;BME280;49700;48.072;7.800;2023-04-01T08:25:04;98405.66;;;11.30;nan
63556;BME280;49700;48.072;7.800;2023-04-01T08:33:31;98407.63;;;11.38;nan
63556;BME280;49700;48.072;7.800;2023-04-01T08:38:43;98405.16;;;11.46;nan
63556;BME280;49700;48.072;7.800;2023-04-01T08:47:18;98415.41;;;11.49;nan
63556;BME280;49700;48.072;7.800;2023-04-01T08:50:08;98411.84;;;11.50;nan
63556;BME280;49700;48.072;7.800;2023-04-01T08:53:00;98419.84;;;11.49;nan
63556;BME280;49700;48.072;7.800;2023-04-01T08:55:40;98420.81;;;11.48;nan
63556;BME280;49700;48.072;7.800;2023-04-01T08:58:20;98418.19;;;11.48;nan
63556;BME280;49700;48.072;7.800;2023-04-01T09:01:34;98427.03;;;11.47;nan
63556;BME280;49700;48.072;7.800;2023-04-01T09:04:29;98421.38;;;11.51;nan
63556;BME280;49700;48.072;7.800;2023-04-01T09:09:44;98416.13;;;11.51;nan
63556;BME280;49700;48.072;7.800;2023-04-01T09:14:54;98419.72;;;11.50;nan
63556;BME280;49700;48.072;7.800;2023-04-01T09:34:30;98421.13;;;11.55;nan
63556;BME280;49700;48.072;7.800;2023-04-01T09:37:21;98440.50;;;11.54;nan
63556;BME280;49700;48.072;7.800;2023-04-01T09:43:28;98431.34;;;11.58;nan
63556;BME280;49700;48.072;7.800;2023-04-01T09:46:09;98432.91;;;11.60;nan
63556;BME280;49700;48.072;7.800;2023-04-01T09:48:52;98435.25;;;11.63;nan
63556;BME280;49700;48.072;7.800;2023-04-01T09:51:44;98438.31;;;11.68;nan
63556;BME280;49700;48.072;7.800;2023-04-01T10:00:32;98443.00;;;11.86;nan
63556;BME280;49700;48.072;7.800;2023-04-01T10:03:22;98444.38;;;11.90;nan
63556;BME280;49700;48.072;7.800;2023-04-01T10:09:08;98445.94;;;12.02;nan
63556;BME280;49700;48.072;7.800;2023-04-01T10:28:33;98451.50;;;12.18;nan
63556;BME280;49700;48.072;7.800;2023-04-01T10:37:27;98463.84;;;12.18;nan
63556;BME280;49700;48.072;7.800;2023-04-01T10:54:47;98462.34;;;12.35;nan
63556;BME280;49700;48.072;7.800;2023-04-01T11:15:45;98477.75;;;12.39;nan
63556;BME280;49700;48.072;7.800;2023-04-01T11:30:02;98480.06;;;12.33;nan
63556;BME280;49700;48.072;7.800;2023-04-01T11:32:37;98481.72;;;12.34;nan
63556;BME280;49700;48.072;7.800;2023-04-01T11:37:53;98478.56;;;12.40;nan
63556;BME280;49700;48.072;7.800;2023-04-01T11:44:18;98485.47;;;12.41;nan
63556;BME280;49700;48.072;7.800;2023-04-01T11:53:38;98485.22;;;12.44;nan
63556;BME280;49700;48.072;7.800;2023-04-01T11:56:13;98478.28;;;12.43;nan
63556;BME280;49700;48.072;7.800;2023-04-01T12:18:28;98490.19;;;12.47;nan
63556;BME280;49700;48.072;7.800;2023-04-01T12:26:47;98495.75;;;12.54;nan
63556;BME280;49700;48.072;7.800;2023-04-01T12:32:40;98478.84;;;12.56;nan
63556;BME280;49700;48.072;7.800;2023-04-01T12:35:24;98476.66;;;12.61;nan
63556;BME280;49700;48.072;7.800;2023-04-01T12:40:49;98473.16;;;12.71;nan
63556;BME280;49700;48.072;7.800;2023-04-01T12:52:13;98488.41;;;12.77;nan
63556;BME280;49700;48.072;7.800;2023-04-01T12:57:54;98484.81;;;12.78;nan
63556;BME280;49700;48.072;7.800;2023-04-01T13:00:53;98484.00;;;12.77;nan
63556;BME280;49700;48.072;7.800;2023-04-01T13:12:00;98493.84;;;12.75;nan
63556;BME280;49700;48.072;7.800;2023-04-01T13:27:44;98485.91;;;12.85;nan
63556;BME280;49700;48.072;7.800;2023-04-01T13:30:35;98487.31;;;12.89;nan
63556;BME280;49700;48.072;7.800;2023-04-01T13:41:21;98487.16;;;13.00;nan
63556;BME280;49700;48.072;7.800;2023-04-01T13:44:15;98481.59;;;13.03;nan
63556;BME280;49700;48.072;7.800;2023-04-01T13:47:08;98491.72;;;13.08;nan
63556;BME280;49700;48.072;7.800;2023-04-01T13:50:12;98476.31;;;13.13;nan
63556;BME280;49700;48.072;7.800;2023-04-01T13:55:30;98483.53;;;13.21;nan
63556;BME280;49700;48.072;7.800;2023-04-01T14:01:23;98487.25;;;13.38;nan
63556;BME280;49700;48.072;7.800;2023-04-01T14:09:45;98482.00;;;13.75;nan
63556;BME280;49700;48.072;7.800;2023-04-01T14:12:35;98468.44;;;13.88;nan
63556;BME280;49700;48.072;7.800;2023-04-01T14:23:41;98476.09;;;14.36;nan
63556;BME280;49700;48.072;7.800;2023-04-01T14:29:21;98464.03;;;14.52;nan
63556;BME280;49700;48.072;7.800;2023-04-01T14:32:11;98463.47;;;14.58;nan
63556;BME280;49700;48.072;7.800;2023-04-01T14:35:29;98470.81;;;14.64;nan
63556;BME280;49700;48.072;7.800;2023-04-01T14:46:23;98473.03;;;14.77;nan
63556;BME280;49700;48.072;7.800;2023-04-01T14:49:05;98477.50;;;14.76;nan
63556;BME280;49700;48.072;7.800;2023-04-01T14:51:40;98480.53;;;14.81;nan
63556;BME280;49700;48.072;7.800;2023-04-01T14:54:19;98481.53;;;14.80;nan
63556;BME280;49700;48.072;7.800;2023-04-01T14:56:51;98478.63;;;14.74;nan
63556;BME280;49700;48.072;7.800;2023-04-01T14:59:28;98482.03;;;14.66;nan
63556;BME280;49700;48.072;7.800;2023-04-01T15:05:20;98474.91;;;14.49;nan
63556;BME280;49700;48.072;7.800;2023-04-01T15:08:07;98481.72;;;14.51;nan
63556;BME280;49700;48.072;7.800;2023-04-01T15:16:17;98476.88;;;14.47;nan
63556;BME280;49700;48.072;7.800;2023-04-01T15:22:01;98485.84;;;14.36;nan
63556;BME280;49700;48.072;7.800;2023-04-01T15:25:02;98488.78;;;14.33;nan
63556;BME280;49700;48.072;7.800;2023-04-01T15:28:10;98491.28;;;14.34;nan
63556;BME280;49700;48.072;7.800;2023-04-01T15:30:44;98496.19;;;14.29;nan
63556;BME280;49700;48.072;7.800;2023-04-01T15:35:56;98494.88;;;14.15;nan
63556;BME280;49700;48.072;7.800;2023-04-01T15:38:38;98498.38;;;14.06;nan
63556;BME280;49700;48.072;7.800;2023-04-01T15:41:35;98505.38;;;13.98;nan
63556;BME280;49700;48.072;7.800;2023-04-01T15:44:01;98501.94;;;13.87;nan
63556;BME280;49700;48.072;7.800;2023-04-01T15:46:41;98512.97;;;13.73;nan
63556;BME280;49700;48.072;7.800;2023-04-01T15:49:10;98518.88;;;13.57;nan
63556;BME280;49700;48.072;7.800;2023-04-01T16:02:46;98523.09;;;12.72;nan
63556;BME280;49700;48.072;7.800;2023-04-01T16:08:19;98528.19;;;12.54;nan
63556;BME280;49700;48.072;7.800;2023-04-01T16:10:58;98523.22;;;12.51;nan
63556;BME280;49700;48.072;7.800;2023-04-01T16:21:59;98527.41;;;12.83;nan
63556;BME280;49700;48.072;7.800;2023-04-01T16:24:40;98526.56;;;12.92;nan
63556;BME280;49700;48.072;7.800;2023-04-01T16:27:12;98526.69;;;13.00;nan
63556;BME280;49700;48.072;7.800;2023-04-01T16:29:50;98521.72;;;13.07;nan
63556;BME280;49700;48.072;7.800;2023-04-01T16:37:21;98522.38;;;13.38;nan
63556;BME280;49700;48.072;7.800;2023-04-01T16:40:14;98518.50;;;13.42;nan
63556;BME280;49700;48.072;7.800;2023-04-01T16:43:06;98515.88;;;13.42;nan
63556;BME280;49700;48.072;7.800;2023-04-01T16:45:43;98519.31;;;13.43;nan
63556;BME280;49700;48.072;7.800;2023-04-01T16:48:35;98515.16;;;13.40;nan
63556;BME280;49700;48.072;7.800;2023-04-01T16:51:16;98515.88;;;13.42;nan
63556;BME280;49700;48.072;7.800;2023-04-01T16:53:48;98520.28;;;13.42;nan
63556;BME280;49700;48.072;7.800;2023-04-01T16:56:24;98523.06;;;13.40;nan
63556;BME280;49700;48.072;7.800;2023-04-01T16:59:17;98521.69;;;13.36;nan
63556;BME280;49700;48.072;7.800;2023-04-01T17:04:37;98521.16;;;13.33;nan
63556;BME280;49700;48.072;7.800;2023-04-01T17:12:46;98526.16;;;13.26;nan
63556;BME280;49700;48.072;7.800;2023-04-01T17:20:56;98523.75;;;13.23;nan
63556;BME280;49700;48.072;7.800;2023-04-01T17:23:35;98528.81;;;13.26;nan
63556;BME280;49700;48.072;7.800;2023-04-01T17:31:21;98540.16;;;13.36;nan
63556;BME280;49700;48.072;7.800;2023-04-01T17:34:00;98534.88;;;13.36;nan
63556;BME280;49700;48.072;7.800;2023-04-01T17:44:54;98549.28;;;13.22;nan
63556;BME280;49700;48.072;7.800;2023-04-01T17:50:22;98551.81;;;13.04;nan
63556;BME280;49700;48.072;7.800;2023-04-01T17:53:11;98557.63;;;12.98;nan
63556;BME280;49700;48.072;7.800;2023-04-01T17:55:43;98554.03;;;12.90;nan
63556;BME280;49700;48.072;7.800;2023-04-01T17:58:28;98555.00;;;12.79;nan
63556;BME280;49700;48.072;7.800;2023-04-01T18:01:40;98559.56;;;12.67;nan
63556;BME280;49700;48.072;7.800;2023-04-01T18:12:24;98581.09;;;12.32;nan
63556;BME280;49700;48.072;7.800;2023-04-01T18:23:44;98585.16;;;12.05;nan
63556;BME280;49700;48.072;7.800;2023-04-01T18:26:20;98586.53;;;12.00;nan
63556;BME280;49700;48.072;7.800;2023-04-01T18:29:02;98583.00;;;11.89;nan
63556;BME280;49700;48.072;7.800;2023-04-01T18:31:35;98591.53;;;11.82;nan
63556;BME280;49700;48.072;7.800;2023-04-01T18:34:10;98593.69;;;11.77;nan
63556;BME280;49700;48.072;7.800;2023-04-01T18:36:59;98587.88;;;11.73;nan
63556;BME280;49700;48.072;7.800;2023-04-01T18:39:40;98600.69;;;11.66;nan
63556;BME280;49700;48.072;7.800;2023-04-01T18:42:38;98608.41;;;11.58;nan
63556;BME280;49700;48.072;7.800;2023-04-01T18:45:22;98608.91;;;11.52;nan
63556;BME280;49700;48.072;7.800;2023-04-01T18:53:28;98617.13;;;11.38;nan
63556;BME280;49700;48.072;7.800;2023-04-01T18:56:14;98624.56;;;11.33;nan
63556;BME280;49700;48.072;7.800;2023-04-01T18:58:48;98627.44;;;11.29;nan
63556;BME280;49700;48.072;7.800;2023-04-01T19:01:24;98634.72;;;11.26;nan
63556;BME280;49700;48.072;7.800;2023-04-01T19:06:50;98641.09;;;11.23;nan
63556;BME280;49700;48.072;7.800;2023-04-01T19:17:13;98655.69;;;11.16;nan
63556;BME280;49700;48.072;7.800;2023-04-01T19:19:53;98654.72;;;11.17;nan
63556;BME280;49700;48.072;7.800;2023-04-01T19:47:11;98668.03;;;11.04;nan
63556;BME280;49700;48.072;7.800;2023-04-01T19:54:54;98682.97;;;10.93;nan
63556;BME280;49700;48.072;7.800;2023-04-01T20:16:01;98691.41;;;10.64;nan
63556;BME280;49700;48.072;7.800;2023-04-01T20:18:46;98695.94;;;10.62;nan
63556;BME280;49700;48.072;7.800;2023-04-01T20:23:45;98694.38;;;10.59;nan
63556;BME280;49700;48.072;7.800;2023-04-01T20:26:20;98703.81;;;10.62;nan
63556;BME280;49700;48.072;7.800;2023-04-01T20:37:48;98720.38;;;10.62;nan
63556;BME280;49700;48.072;7.800;2023-04-01T20:40:29;98727.31;;;10.63;nan
63556;BME280;49700;48.072;7.800;2023-04-01T20:43:35;98732.34;;;10.67;nan
63556;BME280;49700;48.072;7.800;2023-04-01T20:46:48;98732.34;;;10.67;nan
63556;BME280;49700;48.072;7.800;2023-04-01T20:49:50;98736.50;;;10.69;nan
63556;BME280;49700;48.072;7.800;2023-04-01T20:53:20;98739.84;;;10.71;nan
63556;BME280;49700;48.072;7.800;2023-04-01T20:58:35;98748.94;;;10.67;nan
63556;BME280;49700;48.072;7.800;2023-04-01T21:18:32;98788.31;;;10.56;nan
63556;BME280;49700;48.072;7.800;2023-04-01T21:21:13;98782.22;;;10.55;nan
63556;BME280;49700;48.072;7.800;2023-04-01T21:38:20;98807.88;;;10.63;nan
63556;BME280;49700;48.072;7.800;2023-04-01T21:49:09;98803.59;;;10.73;nan
63556;BME280;49700;48.072;7.800;2023-04-01T21:52:04;98800.97;;;10.73;nan
63556;BME280;49700;48.072;7.800;2023-04-01T22:02:40;98795.25;;;10.68;nan
63556;BME280;49700;48.072;7.800;2023-04-01T22:05:16;98801.47;;;10.67;nan
63556;BME280;49700;48.072;7.800;2023-04-01T22:15:59;98801.91;;;10.61;nan
63556;BME280;49700;48.072;7.800;2023-04-01T22:21:00;98800.47;;;10.57;nan
63556;BME280;49700;48.072;7.800;2023-04-01T22:23:47;98813.72;;;10.55;nan
63556;BME280;49700;48.072;7.800;2023-04-01T22:26:40;98807.88;;;10.52;nan
63556;BME280;49700;48.072;7.800;2023-04-01T22:29:20;98805.34;;;10.50;nan
63556;BME280;49700;48.072;7.800;2023-04-01T22:31:55;98805.47;;;10.49;nan
63556;BME280;49700;48.072;7.800;2023-04-01T22:34:34;98809.06;;;10.48;nan
63556;BME280;49700;48.072;7.800;2023-04-01T22:37:23;98808.34;;;10.46;nan
63556;BME280;49700;48.072;7.800;2023-04-01T22:48:08;98811.53;;;10.38;nan
63556;BME280;49700;48.072;7.800;2023-04-01T22:50:42;98818.69;;;10.36;nan
63556;BME280;49700;48.072;7.800;2023-04-01T22:53:36;98808.31;;;10.34;nan
63556;BME280;49700;48.072;7.800;2023-04-01T22:56:01;98814.50;;;10.33;nan
63556;BME280;49700;48.072;7.800;2023-04-01T22:58:40;98818.09;;;10.32;nan
63556;BME280;49700;48.072;7.800;2023-04-01T23:01:13;98824.41;;;10.30;nan
63556;BME280;49700;48.072;7.800;2023-04-01T23:03:41;98822.00;;;10.27;nan